createdAt,value
2019-04-05T13:03:12.043Z,25.68
2019-04-05T13:05:44.682Z,25.62
2019-04-05T13:08:16.486Z,25.88
2019-04-05T13:10:48.281Z,25.65
2019-04-05T13:13:20.004Z,25.41
2019-04-05T13:15:51.412Z,24.96
2019-04-05T13:18:25.129Z,25.47
2019-04-05T13:20:56.152Z,25.17
2019-04-05T13:23:27.511Z,25.24
2019-04-05T13:25:58.845Z,25.49
2019-04-05T13:28:30.528Z,24.66
2019-04-05T13:31:01.854Z,24.71
2019-04-05T13:33:33.209Z,24.55
2019-04-05T13:36:04.787Z,24.93
2019-04-05T13:38:36.524Z,24.22
2019-04-05T13:41:08.182Z,24.60
2019-04-05T13:43:40.245Z,24.63
2019-04-05T13:46:21.333Z,24.69
2019-04-05T13:48:44.782Z,24.83
2019-04-05T13:51:27.260Z,24.91
2019-04-05T13:53:49.150Z,24.72
2019-04-05T13:56:20.666Z,24.99
2019-04-05T13:58:52.002Z,24.87
2019-04-05T14:01:23.258Z,24.74
2019-04-05T14:03:54.595Z,24.77
2019-04-05T14:06:26.173Z,24.87
2019-04-05T14:08:57.672Z,25.03
2019-04-05T14:11:28.948Z,24.87
2019-04-05T14:14:00.850Z,24.75
2019-04-05T14:16:32.024Z,24.70
2019-04-05T14:19:03.761Z,24.63
2019-04-05T14:21:41.170Z,24.62
2019-04-05T14:24:08.989Z,24.56
2019-04-05T14:26:40.331Z,24.59
2019-04-05T14:29:11.988Z,24.56
2019-04-05T14:31:43.708Z,24.56
2019-04-05T14:34:15.325Z,24.36
2019-04-05T14:36:47.021Z,24.45
2019-04-05T14:39:18.718Z,24.11
2019-04-05T14:41:50.476Z,24.24
2019-04-05T14:44:22.229Z,24.27
2019-04-05T14:46:53.592Z,24.36
2019-04-05T14:49:25.193Z,24.51
2019-04-05T15:53:31.902Z,25.37
2019-04-05T15:56:04.368Z,25.43
2019-04-05T15:58:36.255Z,25.55
2019-04-05T16:01:08.387Z,25.53
2019-04-05T16:03:39.823Z,25.55
2019-04-05T16:06:11.149Z,25.74
2019-04-05T16:08:42.449Z,26.07
2019-04-05T16:11:13.855Z,26.15
2019-04-05T16:13:45.339Z,26.31
2019-04-05T16:16:16.687Z,26.49
2019-04-05T16:18:48.018Z,26.65
2019-04-05T16:21:19.597Z,26.86
2019-04-05T16:23:52.395Z,27.18
2019-04-05T16:26:23.983Z,27.37
2019-04-05T16:28:55.409Z,27.55
2019-04-05T16:31:26.721Z,27.73
2019-04-05T16:33:58.301Z,27.78
2019-04-05T16:36:31.066Z,27.95
2019-04-05T16:39:02.704Z,28.03
2019-04-05T16:41:35.707Z,28.12
2019-04-05T16:44:07.079Z,28.23
2019-04-05T16:46:38.535Z,28.11
2019-04-05T16:49:10.045Z,28.09
2019-04-05T16:51:41.616Z,28.07
2019-04-05T16:54:13.404Z,28.11
2019-04-05T16:56:44.896Z,28.27
2019-04-05T16:59:16.250Z,28.28
2019-04-05T17:01:47.514Z,28.30
2019-04-05T17:04:19.028Z,28.31
2019-04-05T17:06:50.404Z,28.40
2019-04-05T17:09:21.756Z,28.43
2019-04-05T17:11:53.010Z,28.72
2019-04-05T17:14:24.523Z,28.85
2019-04-05T17:16:55.806Z,28.92
2019-04-05T17:19:27.134Z,28.95
2019-04-05T17:21:58.524Z,28.77
2019-04-05T17:24:30.283Z,28.78
2019-04-05T17:27:01.902Z,28.81
2019-04-05T17:29:33.254Z,28.85
2019-04-05T17:32:04.790Z,28.81
2019-04-05T17:34:36.156Z,28.64
2019-04-05T17:37:07.482Z,28.62
2019-04-05T17:39:38.892Z,29.04
2019-04-05T17:42:10.194Z,29.21
2019-04-05T17:44:41.594Z,29.22
2019-04-05T17:47:12.994Z,29.48
2019-04-05T17:49:44.365Z,29.50
2019-04-05T17:52:15.685Z,29.67
2019-04-05T17:54:47.054Z,30.85
2019-04-05T17:57:18.371Z,31.56
2019-04-05T17:59:49.842Z,31.93
2019-04-05T18:02:21.186Z,31.87
2019-04-05T18:04:52.627Z,31.97
2019-04-05T18:07:24.016Z,31.91
2019-04-05T18:09:55.433Z,31.68
2019-04-05T18:12:26.742Z,32.27
2019-04-05T18:14:58.262Z,32.64
2019-04-05T18:17:29.541Z,32.44
2019-04-05T18:20:01.083Z,32.64
2019-04-05T18:22:32.371Z,32.91
2019-04-05T18:25:04.199Z,33.47
2019-04-05T18:27:35.595Z,33.34
2019-04-05T18:30:07.588Z,33.48
2019-04-05T18:32:39.043Z,33.75
2019-04-05T18:35:10.427Z,34.16
2019-04-05T18:37:41.809Z,34.41
2019-04-05T18:40:13.300Z,34.33
2019-04-05T18:42:44.579Z,34.29
